createdAt,value
2019-04-23T00:01:14.747Z,2.53
2019-04-23T00:03:41.607Z,2.60
2019-04-23T00:06:21.797Z,2.67
2019-04-23T00:09:07.366Z,2.63
2019-04-23T00:11:25.887Z,2.67
2019-04-23T00:13:57.778Z,2.53
2019-04-23T00:16:36.325Z,2.87
2019-04-23T00:18:58.897Z,2.70
2019-04-23T00:22:05.490Z,2.90
2019-04-23T00:30:18.827Z,2.97
2019-04-23T00:35:09.162Z,2.73
2019-04-23T00:37:55.056Z,3.00
2019-04-23T00:40:15.384Z,2.80
2019-04-23T00:45:16.732Z,3.03
2019-04-23T00:47:49.635Z,3.00
2019-04-23T00:50:31.741Z,2.90
2019-04-23T00:52:50.371Z,3.10
2019-04-23T00:55:21.176Z,2.87
2019-04-23T00:57:57.809Z,3.10
2019-04-23T01:00:40.358Z,2.97
2019-04-23T01:03:05.830Z,2.60
2019-04-23T01:05:37.786Z,2.77
2019-04-23T01:08:05.101Z,2.80
2019-04-23T01:13:31.784Z,3.00
2019-04-23T01:18:40.950Z,2.60
2019-04-23T01:20:53.782Z,2.90
2019-04-23T01:23:40.396Z,2.67
2019-04-23T01:26:26.484Z,2.90
2019-04-23T01:29:01.617Z,2.80
2019-04-23T01:31:36.421Z,2.80
2019-04-23T01:34:03.726Z,3.00
2019-04-23T01:36:51.657Z,3.20
2019-04-23T01:39:14.529Z,3.10
2019-04-23T01:41:45.304Z,3.03
2019-04-23T01:44:14.388Z,2.90
2019-04-23T01:46:49.307Z,3.00
2019-04-23T01:49:27.253Z,2.73
2019-04-23T01:54:19.734Z,2.83
2019-04-23T01:56:47.475Z,3.40
2019-04-23T01:59:26.251Z,3.00
2019-04-23T02:06:59.411Z,3.10
2019-04-23T02:09:37.243Z,3.17
2019-04-23T02:12:07.662Z,3.20
2019-04-23T02:14:36.431Z,3.23
2019-04-23T02:17:10.256Z,2.93
2019-04-23T02:19:46.296Z,3.03
2019-04-23T02:22:38.207Z,3.37
2019-04-23T02:25:25.103Z,3.10
2019-04-23T02:33:11.001Z,3.20
2019-04-23T02:38:18.503Z,3.10
2019-04-23T02:41:12.752Z,2.87
2019-04-23T02:43:21.863Z,3.77
2019-04-23T02:48:38.185Z,3.27
2019-04-23T02:51:06.682Z,3.30
2019-04-23T02:53:45.470Z,2.83
2019-04-23T02:56:12.238Z,3.23
2019-04-23T02:58:49.702Z,3.40
2019-04-23T03:03:58.058Z,3.00
2019-04-23T03:06:22.846Z,3.10
2019-04-23T03:11:24.923Z,3.00
2019-04-23T03:14:00.296Z,3.07
2019-04-23T03:19:49.796Z,3.57
2019-04-23T03:25:10.740Z,3.33
2019-04-23T03:27:34.225Z,3.20
2019-04-23T03:34:02.870Z,3.30
2019-04-23T03:38:10.188Z,3.47
2019-04-23T03:40:15.768Z,3.50
2019-04-23T03:43:02.392Z,3.70
2019-04-23T03:48:06.038Z,3.70
2019-04-23T03:50:35.874Z,3.80
2019-04-23T03:53:03.406Z,3.73
2019-04-23T03:58:12.165Z,3.60
2019-04-23T04:03:27.393Z,3.80
2019-04-23T04:08:18.414Z,4.00
2019-04-23T04:11:08.573Z,3.60
2019-04-23T04:13:37.034Z,4.17
2019-04-23T04:21:05.754Z,3.87
2019-04-23T04:23:22.725Z,4.33
2019-04-23T04:26:00.154Z,3.87
2019-04-23T04:28:38.862Z,4.30
2019-04-23T04:38:40.547Z,4.10
2019-04-23T04:41:14.287Z,4.07
2019-04-23T04:44:07.336Z,4.33
2019-04-23T04:46:21.317Z,4.37
2019-04-23T04:51:18.899Z,4.60
2019-04-23T04:59:03.682Z,4.13
2019-04-23T05:01:25.888Z,4.90
2019-04-23T05:03:58.222Z,4.60
2019-04-23T05:06:39.132Z,4.70
2019-04-23T05:09:25.208Z,4.60
2019-04-23T05:14:07.601Z,4.07
2019-04-23T05:19:22.282Z,4.40
2019-04-23T05:24:14.986Z,4.50
2019-04-23T05:26:37.563Z,4.70
2019-04-23T05:31:47.053Z,5.17
2019-04-23T05:37:01.922Z,5.20
2019-04-23T05:39:32.010Z,5.37
2019-04-23T05:41:53.620Z,4.90
2019-04-23T05:47:13.278Z,4.90
2019-04-23T05:49:41.407Z,5.23
2019-04-23T05:52:09.443Z,5.23
2019-04-23T05:54:52.438Z,5.40
2019-04-23T05:57:13.967Z,5.27
2019-04-23T05:59:48.522Z,5.47
2019-04-23T06:02:26.570Z,5.30
2019-04-23T06:04:57.255Z,5.40
2019-04-23T06:10:06.321Z,5.57
2019-04-23T06:15:07.413Z,5.80
2019-04-23T06:17:38.108Z,5.80
2019-04-23T06:25:30.969Z,6.20
2019-04-23T06:27:57.885Z,5.80
2019-04-23T06:30:35.277Z,5.97
2019-04-23T06:33:05.855Z,6.37
2019-04-23T06:35:47.072Z,6.33
2019-04-23T06:41:06.814Z,5.83
2019-04-23T06:43:37.490Z,6.00
2019-04-23T06:45:57.478Z,6.50
2019-04-23T06:48:35.543Z,6.20
2019-04-23T06:51:11.219Z,6.37
2019-04-23T06:53:40.420Z,6.60
2019-04-23T06:58:44.128Z,6.80
2019-04-23T07:01:09.635Z,7.07
2019-04-23T07:03:51.789Z,6.73
2019-04-23T07:06:23.554Z,6.80
2019-04-23T07:11:28.775Z,6.83
2019-04-23T07:16:22.905Z,7.07
2019-04-23T07:19:16.516Z,7.30
2019-04-23T07:21:46.472Z,7.40
2019-04-23T07:24:05.331Z,7.17
2019-04-23T07:29:15.682Z,7.07
2019-04-23T07:31:46.066Z,7.17
2019-04-23T07:34:24.422Z,7.10
2019-04-23T07:36:47.435Z,7.53
2019-04-23T07:39:23.491Z,7.07
2019-04-23T07:47:50.815Z,7.50
2019-04-23T07:50:33.603Z,7.40
2019-04-23T07:55:42.686Z,8.00
2019-04-23T07:58:14.041Z,7.50
2019-04-23T08:00:48.893Z,7.67
2019-04-23T08:08:11.811Z,8.03
2019-04-23T08:11:29.967Z,7.90
2019-04-23T08:16:23.355Z,8.30
2019-04-23T08:18:49.495Z,8.00
2019-04-23T08:21:18.212Z,8.13
2019-04-23T08:24:17.057Z,8.20
2019-04-23T08:29:22.070Z,8.30
2019-04-23T08:32:00.561Z,8.07
2019-04-23T08:34:48.260Z,8.90
2019-04-23T08:37:04.629Z,8.43
2019-04-23T08:39:38.319Z,8.23
2019-04-23T08:45:10.471Z,8.30
2019-04-23T08:47:42.169Z,8.23
2019-04-23T08:50:23.314Z,8.63
2019-04-23T08:52:54.003Z,9.13
2019-04-23T08:55:32.567Z,9.03
2019-04-23T08:57:47.132Z,8.77
2019-04-23T09:00:24.846Z,8.93
2019-04-23T09:03:11.238Z,8.53
2019-04-23T09:08:11.730Z,9.20
2019-04-23T09:10:44.519Z,8.77
2019-04-23T09:13:35.069Z,8.60
2019-04-23T09:15:44.477Z,8.50
2019-04-23T09:18:15.990Z,8.70
2019-04-23T09:20:37.474Z,9.20
2019-04-23T09:23:18.576Z,8.63
2019-04-23T09:28:34.887Z,9.83
2019-04-23T09:31:08.977Z,8.70
2019-04-23T09:36:51.669Z,9.00
2019-04-23T09:39:34.581Z,8.80
2019-04-23T09:42:32.288Z,8.90
2019-04-23T09:45:13.962Z,8.90
2019-04-23T09:47:58.593Z,8.60
2019-04-23T09:53:09.777Z,9.20
2019-04-23T09:55:35.126Z,8.40
2019-04-23T10:00:42.155Z,8.83
2019-04-23T10:03:07.590Z,8.87
2019-04-23T10:05:39.057Z,9.67
2019-04-23T10:08:10.459Z,9.13
2019-04-23T10:10:30.364Z,9.40
2019-04-23T10:13:00.379Z,9.97
2019-04-23T10:15:37.201Z,9.27
2019-04-23T10:18:05.143Z,8.03
2019-04-23T10:20:46.744Z,8.80
2019-04-23T10:23:19.084Z,9.27
2019-04-23T10:25:49.954Z,8.73
2019-04-23T10:28:35.992Z,9.00
2019-04-23T10:31:12.589Z,9.43
2019-04-23T10:34:23.157Z,9.97
2019-04-23T10:37:02.767Z,9.43
2019-04-23T10:39:37.809Z,9.30
2019-04-23T10:42:18.160Z,8.67
2019-04-23T10:45:15.252Z,8.80
2019-04-23T10:51:24.747Z,9.47
2019-04-23T10:54:15.819Z,8.83
2019-04-23T10:56:42.638Z,9.10
2019-04-23T10:59:10.415Z,9.00
2019-04-23T11:01:49.218Z,8.90
2019-04-23T11:04:35.425Z,8.80
2019-04-23T11:06:49.981Z,8.70
2019-04-23T11:09:42.519Z,9.00
2019-04-23T11:12:24.288Z,8.33
2019-04-23T11:14:52.716Z,8.30
2019-04-23T11:17:15.561Z,8.70
2019-04-23T11:19:59.703Z,9.10
2019-04-23T11:27:32.635Z,9.20
2019-04-23T11:30:11.895Z,8.97
2019-04-23T11:32:46.942Z,9.03
2019-04-23T11:37:47.932Z,8.57
2019-04-23T11:40:11.151Z,8.73
2019-04-23T11:42:49.616Z,8.60
2019-04-23T11:45:50.608Z,8.10
2019-04-23T11:50:42.140Z,8.40
2019-04-23T11:52:56.802Z,8.13
2019-04-23T12:00:51.266Z,8.40
2019-04-23T12:03:37.367Z,8.17
2019-04-23T12:09:36.993Z,8.50
2019-04-23T12:15:09.684Z,7.13
2019-04-23T12:27:31.369Z,7.97
2019-04-23T12:30:13.208Z,8.57
2019-04-23T12:32:48.723Z,7.90
2019-04-23T12:35:27.609Z,8.63
2019-04-23T12:37:44.893Z,8.03
2019-04-23T12:43:02.398Z,7.93
2019-04-23T12:45:46.923Z,8.23
2019-04-23T12:53:20.639Z,8.00
2019-04-23T12:55:43.989Z,8.57
2019-04-23T12:58:26.960Z,8.00
2019-04-23T13:00:58.706Z,8.40
2019-04-23T13:03:30.090Z,7.87
2019-04-23T13:05:53.410Z,8.33
2019-04-23T13:08:51.507Z,8.10
2019-04-23T13:11:10.153Z,7.80
2019-04-23T13:13:48.488Z,8.13
2019-04-23T13:16:16.477Z,8.53
2019-04-23T13:18:44.773Z,7.80
2019-04-23T13:21:44.654Z,8.00
2019-04-23T13:24:35.588Z,7.93
2019-04-23T13:27:17.097Z,7.60
2019-04-23T13:29:43.010Z,7.83
2019-04-23T13:32:09.341Z,6.93
2019-04-23T13:35:14.843Z,7.50
2019-04-23T13:37:37.631Z,7.13
2019-04-23T13:40:00.478Z,7.77
2019-04-23T13:45:26.830Z,8.00
2019-04-23T13:47:53.213Z,7.97
2019-04-23T13:50:30.936Z,8.50
2019-04-23T13:53:08.208Z,7.93
2019-04-23T13:55:17.252Z,8.10
2019-04-23T14:00:39.056Z,7.97
2019-04-23T14:02:57.939Z,7.67
2019-04-23T14:06:04.903Z,8.30
2019-04-23T14:08:41.586Z,7.23
2019-04-23T14:11:02.225Z,8.37
2019-04-23T14:16:13.755Z,7.27
2019-04-23T14:21:18.893Z,7.67
2019-04-23T14:24:07.978Z,7.00
2019-04-23T14:28:59.296Z,7.23
2019-04-23T14:34:00.178Z,7.17
2019-04-23T14:39:05.944Z,7.30
2019-04-23T14:41:54.129Z,7.03
2019-04-23T14:44:41.113Z,6.93
2019-04-23T14:49:44.792Z,7.13
2019-04-23T14:52:12.328Z,7.50
2019-04-23T14:55:35.395Z,7.63
2019-04-23T15:00:01.636Z,8.23
2019-04-23T15:02:38.230Z,8.30
2019-04-23T15:05:09.688Z,7.47
2019-04-23T15:07:36.247Z,8.17
2019-04-23T15:12:48.667Z,7.97
2019-04-23T15:15:25.241Z,7.83
2019-04-23T15:18:01.806Z,7.87
2019-04-23T15:27:13.487Z,8.27
2019-04-23T15:30:36.699Z,8.50
2019-04-23T15:33:23.183Z,8.70
2019-04-23T15:40:53.324Z,8.00
2019-04-23T15:43:28.445Z,8.53
2019-04-23T15:46:02.918Z,8.13
2019-04-23T15:51:12.469Z,8.57
2019-04-23T15:53:34.448Z,8.40
2019-04-23T15:56:16.171Z,8.73
2019-04-23T15:58:50.421Z,8.80
2019-04-23T16:03:24.352Z,8.27
2019-04-23T16:05:55.224Z,8.30
2019-04-23T16:11:39.495Z,8.63
2019-04-23T16:14:16.994Z,8.20
2019-04-23T16:16:41.231Z,8.53
2019-04-23T16:19:24.749Z,8.63
2019-04-23T16:27:07.683Z,8.20
2019-04-23T16:32:17.858Z,8.30
2019-04-23T16:34:56.652Z,7.97
2019-04-23T16:37:30.206Z,8.50
2019-04-23T16:40:03.390Z,8.20
2019-04-23T16:42:29.280Z,7.87
2019-04-23T16:47:36.550Z,7.90
2019-04-23T16:50:10.873Z,9.10
2019-04-23T16:52:42.248Z,8.10
2019-04-23T16:55:29.047Z,8.60
2019-04-23T16:57:54.476Z,8.37
2019-04-23T17:03:06.916Z,8.47
2019-04-23T17:05:31.076Z,8.03
2019-04-23T17:08:30.954Z,8.60
2019-04-23T17:10:48.714Z,8.60
2019-04-23T17:13:14.288Z,8.33
2019-04-23T17:18:16.935Z,8.53
2019-04-23T17:20:52.838Z,8.80
2019-04-23T17:23:31.231Z,7.97
2019-04-23T17:25:58.647Z,8.57
2019-04-23T17:33:43.530Z,7.97
2019-04-23T17:36:35.761Z,8.67
2019-04-23T17:42:13.922Z,8.70
2019-04-23T17:45:06.398Z,8.80
2019-04-23T17:47:30.093Z,8.67
2019-04-23T17:52:37.193Z,8.97
2019-04-23T17:57:36.882Z,9.03
2019-04-23T18:05:18.085Z,8.27
2019-04-23T18:15:21.969Z,8.00
2019-04-23T18:20:50.482Z,8.53
2019-04-23T18:23:15.078Z,8.10
2019-04-23T18:28:30.058Z,8.63
2019-04-23T18:31:31.805Z,8.43
2019-04-23T18:34:08.653Z,8.23
2019-04-23T18:36:43.843Z,8.70
2019-04-23T18:39:12.356Z,8.13
2019-04-23T18:41:50.419Z,8.23
2019-04-23T18:44:21.722Z,8.07
2019-04-23T18:46:49.204Z,8.57
2019-04-23T18:49:28.268Z,8.43
2019-04-23T18:51:58.208Z,9.37
2019-04-23T18:54:28.428Z,8.50
2019-04-23T18:59:43.071Z,8.63
2019-04-23T19:02:42.699Z,8.43
2019-04-23T19:15:48.784Z,8.40
2019-04-23T19:18:12.654Z,8.63
2019-04-23T19:23:28.911Z,8.90
2019-04-23T19:25:51.745Z,8.87
2019-04-23T19:31:01.904Z,9.00
2019-04-23T19:36:13.203Z,9.50
2019-04-23T19:38:39.474Z,9.00
2019-04-23T19:41:25.601Z,9.70
2019-04-23T19:46:41.870Z,9.17
2019-04-23T19:49:05.613Z,9.47
2019-04-23T19:51:17.144Z,9.70
2019-04-23T19:56:45.113Z,9.07
2019-04-23T19:58:56.749Z,8.73
2019-04-23T20:01:33.307Z,8.90
2019-04-23T20:03:57.069Z,9.10
2019-04-23T20:06:58.814Z,9.73
2019-04-23T20:11:50.937Z,9.63
2019-04-23T20:14:37.073Z,9.60
2019-04-23T20:17:02.600Z,9.47
2019-04-23T20:19:23.774Z,9.63
2019-04-23T20:22:00.099Z,9.43
2019-04-23T20:25:05.571Z,9.63
2019-04-23T20:30:21.164Z,10.07
2019-04-23T20:33:35.020Z,9.60
2019-04-23T20:35:16.223Z,9.37
2019-04-23T20:40:30.536Z,9.40
2019-04-23T20:45:40.939Z,9.60
2019-04-23T20:48:08.791Z,10.17
2019-04-23T20:50:39.232Z,10.53
2019-04-23T20:53:03.325Z,10.20
2019-04-23T20:55:55.621Z,10.00
2019-04-23T20:58:21.304Z,9.87
2019-04-23T21:01:38.627Z,9.80
2019-04-23T21:04:04.927Z,9.80
2019-04-23T21:06:47.024Z,10.97
2019-04-23T21:11:52.670Z,9.80
2019-04-23T21:14:26.772Z,10.53
2019-04-23T21:19:37.591Z,10.87
2019-04-23T21:22:13.549Z,10.70
2019-04-23T21:24:48.731Z,10.70
2019-04-23T21:27:27.570Z,11.40
2019-04-23T21:32:33.471Z,11.17
2019-04-23T21:35:05.202Z,11.17
2019-04-23T21:37:43.142Z,11.07
2019-04-23T21:43:09.493Z,11.27
2019-04-23T21:45:50.094Z,11.10
2019-04-23T21:48:16.817Z,11.33
2019-04-23T21:53:14.765Z,11.70
2019-04-23T21:56:09.048Z,11.53
2019-04-23T21:58:46.596Z,11.50
2019-04-23T22:01:20.760Z,11.67
2019-04-23T22:08:59.173Z,11.57
2019-04-23T22:11:53.728Z,11.43
2019-04-23T22:16:41.670Z,11.87
2019-04-23T22:21:45.220Z,11.30
2019-04-23T22:24:16.581Z,11.30
2019-04-23T22:26:51.394Z,11.80
2019-04-23T22:29:18.514Z,12.47
2019-04-23T22:31:47.200Z,12.43
2019-04-23T22:37:07.922Z,12.27
2019-04-23T22:39:31.600Z,12.57
2019-04-23T22:42:15.134Z,12.80
2019-04-23T22:44:57.465Z,11.43
2019-04-23T22:47:06.094Z,11.90
2019-04-23T22:52:36.393Z,12.10
2019-04-23T23:00:16.477Z,12.30
2019-04-23T23:03:21.207Z,11.23
2019-04-23T23:06:06.319Z,11.87
2019-04-23T23:08:17.963Z,12.37
2019-04-23T23:11:05.907Z,12.23
2019-04-23T23:13:28.500Z,13.57
2019-04-23T23:16:01.136Z,13.30
2019-04-23T23:18:55.323Z,12.90
2019-04-23T23:21:16.390Z,12.63
2019-04-23T23:23:40.454Z,13.00
2019-04-23T23:28:51.415Z,11.50
2019-04-23T23:31:24.741Z,12.37
2019-04-23T23:33:55.551Z,12.43
2019-04-23T23:36:28.436Z,12.63
2019-04-23T23:39:05.620Z,12.37
2019-04-23T23:41:43.907Z,12.23
2019-04-23T23:44:31.474Z,12.43
2019-04-23T23:47:00.708Z,12.23
2019-04-23T23:49:20.405Z,12.57
2019-04-23T23:57:09.189Z,13.73
